createdAt,value
2022-11-23T00:01:31.437Z,559.92
2022-11-23T00:04:02.035Z,564.40
2022-11-23T00:06:29.112Z,565.03
2022-11-23T00:08:56.185Z,558.63
2022-11-23T00:11:24.222Z,559.08
2022-11-23T00:13:51.237Z,549.67
2022-11-23T00:16:29.689Z,556.08
2022-11-23T00:18:58.671Z,556.10
2022-11-23T00:21:28.701Z,558.60
2022-11-23T00:23:55.450Z,555.00
2022-11-23T00:26:22.557Z,557.55
2022-11-23T00:28:49.370Z,548.38
2022-11-23T00:31:18.338Z,549.05
2022-11-23T00:33:55.765Z,553.97
2022-11-23T00:36:24.104Z,551.25
2022-11-23T00:38:51.957Z,549.88
2022-11-23T00:41:21.986Z,546.47
2022-11-23T00:43:49.073Z,545.75
2022-11-23T00:46:19.815Z,545.20
2022-11-23T00:48:49.072Z,546.60
2022-11-23T00:51:21.756Z,549.17
2022-11-23T00:53:51.352Z,546.43
2022-11-23T00:56:18.606Z,551.42
2022-11-23T00:58:50.686Z,545.13
2022-11-23T01:01:19.819Z,545.13
2022-11-23T01:03:48.954Z,545.97
2022-11-23T01:06:18.689Z,540.38
2022-11-23T01:08:53.021Z,545.47
2022-11-23T01:11:20.162Z,536.20
2022-11-23T01:13:49.667Z,539.40
2022-11-23T01:16:24.248Z,540.58
2022-11-23T01:19:01.987Z,543.05
2022-11-23T01:21:30.057Z,540.58
2022-11-23T01:23:57.527Z,544.13
2022-11-23T01:26:25.035Z,547.05
2022-11-23T01:28:51.980Z,552.85
2022-11-23T01:31:24.372Z,552.72
2022-11-23T01:33:55.696Z,551.25
2022-11-23T01:36:24.827Z,545.70
2022-11-23T01:38:51.961Z,542.00
2022-11-23T01:41:25.793Z,541.38
2022-11-23T01:43:53.021Z,551.33
2022-11-23T01:46:20.451Z,542.65
2022-11-23T01:48:57.606Z,546.42
2022-11-23T01:51:29.159Z,548.65
2022-11-23T01:54:16.631Z,548.97
2022-11-23T01:56:47.946Z,547.88
2022-11-23T01:59:16.887Z,540.58
2022-11-23T02:01:44.568Z,541.92
2022-11-23T02:04:29.642Z,547.10
2022-11-23T02:06:57.346Z,542.90
2022-11-23T02:09:26.556Z,546.30
2022-11-23T02:11:53.187Z,542.40
2022-11-23T02:14:23.350Z,545.38
2022-11-23T02:16:54.265Z,542.95
2022-11-23T02:20:00.462Z,542.80
2022-11-23T02:22:46.051Z,549.28
2022-11-23T02:25:24.135Z,551.75
2022-11-23T02:27:53.686Z,540.03
2022-11-23T02:30:20.335Z,536.30
2022-11-23T02:32:46.945Z,537.83
2022-11-23T02:35:13.654Z,538.13
2022-11-23T02:37:43.532Z,549.65
2022-11-23T02:40:32.079Z,547.23
2022-11-23T02:42:59.860Z,546.97
2022-11-23T02:45:49.783Z,548.22
2022-11-23T02:48:16.981Z,550.87
2022-11-23T02:50:44.081Z,556.63
2022-11-23T02:53:10.883Z,557.30
2022-11-23T02:55:37.820Z,561.22
2022-11-23T02:58:05.858Z,569.70
2022-11-23T03:00:33.430Z,565.90
2022-11-23T03:03:01.748Z,563.30
2022-11-23T03:05:28.381Z,559.78
2022-11-23T03:07:55.150Z,558.63
2022-11-23T03:10:22.278Z,566.70
2022-11-23T03:12:54.430Z,569.10
2022-11-23T03:15:21.700Z,568.55
2022-11-23T03:17:48.472Z,568.00
2022-11-23T03:20:16.510Z,562.42
2022-11-23T03:22:46.347Z,567.17
2022-11-23T03:25:14.957Z,560.08
2022-11-23T03:27:47.900Z,560.20
2022-11-23T03:30:15.330Z,560.33
2022-11-23T03:32:42.790Z,552.22
2022-11-23T03:35:09.595Z,550.28
2022-11-23T03:37:45.720Z,548.87
2022-11-23T03:40:12.955Z,551.20
2022-11-23T03:43:07.640Z,553.30
2022-11-23T03:45:34.260Z,558.05
2022-11-23T03:48:00.824Z,549.10
2022-11-23T03:50:29.776Z,552.42
2022-11-23T03:52:57.145Z,554.58
2022-11-23T03:55:23.792Z,553.03
2022-11-23T03:57:56.461Z,550.83
2022-11-23T04:00:23.213Z,548.80
2022-11-23T04:02:49.841Z,559.42
2022-11-23T04:05:45.439Z,570.63
2022-11-23T04:08:37.981Z,567.65
2022-11-23T04:11:09.781Z,559.30
2022-11-23T04:13:38.589Z,566.63
2022-11-23T04:16:07.315Z,567.20
2022-11-23T04:18:34.243Z,570.90
2022-11-23T04:21:00.852Z,574.90
2022-11-23T04:23:28.309Z,575.22
2022-11-23T04:25:55.345Z,584.30
2022-11-23T04:28:23.312Z,585.05
2022-11-23T04:30:49.958Z,574.10
2022-11-23T04:33:17.432Z,576.00
2022-11-23T04:35:44.497Z,578.05
2022-11-23T04:38:11.140Z,575.28
2022-11-23T04:40:38.230Z,575.20
2022-11-23T04:43:06.776Z,576.75
2022-11-23T04:45:38.464Z,578.25
2022-11-23T04:48:08.135Z,581.30
2022-11-23T04:50:40.438Z,584.00
2022-11-23T04:53:09.021Z,577.50
2022-11-23T04:55:46.136Z,579.70
2022-11-23T04:58:13.192Z,578.90
2022-11-23T05:00:40.444Z,556.90
2022-11-23T05:03:08.065Z,561.00
2022-11-23T05:05:40.536Z,566.30
2022-11-23T05:08:08.944Z,557.75
2022-11-23T05:10:46.242Z,558.03
2022-11-23T05:13:13.506Z,558.97
2022-11-23T05:15:40.189Z,559.05
2022-11-23T05:18:07.242Z,558.45
2022-11-23T05:20:35.491Z,553.00
2022-11-23T05:23:04.528Z,557.42
2022-11-23T05:25:33.572Z,562.28
2022-11-23T05:28:11.381Z,554.38
2022-11-23T05:30:50.613Z,552.47
2022-11-23T05:33:17.688Z,560.25
2022-11-23T05:35:44.371Z,558.30
2022-11-23T05:38:11.087Z,561.42
2022-11-23T05:40:37.821Z,567.38
2022-11-23T05:43:06.553Z,559.95
2022-11-23T05:45:35.327Z,567.80
2022-11-23T05:48:03.253Z,562.40
2022-11-23T05:50:55.054Z,564.05
2022-11-23T05:53:30.388Z,541.55
2022-11-23T05:56:08.430Z,558.90
2022-11-23T05:58:44.548Z,563.33
2022-11-23T06:01:11.576Z,562.72
2022-11-23T06:03:46.289Z,560.75
2022-11-23T06:06:13.542Z,558.55
2022-11-23T06:08:46.634Z,544.43
2022-11-23T06:11:18.231Z,552.83
2022-11-23T06:13:49.677Z,546.03
2022-11-23T06:16:17.609Z,549.35
2022-11-23T06:18:57.787Z,551.42
2022-11-23T06:21:24.436Z,544.90
2022-11-23T06:23:51.675Z,551.75
2022-11-23T06:26:19.044Z,555.70
2022-11-23T06:28:45.889Z,565.03
2022-11-23T06:31:17.160Z,559.10
2022-11-23T06:33:43.820Z,553.38
2022-11-23T06:36:11.436Z,555.65
2022-11-23T06:38:44.312Z,558.20
2022-11-23T06:41:19.260Z,557.97
2022-11-23T06:43:47.948Z,569.65
2022-11-23T06:46:22.426Z,569.05
2022-11-23T06:48:50.143Z,561.30
2022-11-23T06:51:16.994Z,569.40
2022-11-23T06:53:45.065Z,569.45
2022-11-23T06:56:13.918Z,553.78
2022-11-23T06:58:40.827Z,543.13
2022-11-23T07:01:12.727Z,550.65
2022-11-23T07:03:48.560Z,543.47
2022-11-23T07:06:22.176Z,538.55
2022-11-23T07:08:54.795Z,538.38
2022-11-23T07:11:47.864Z,537.53
2022-11-23T07:14:16.505Z,531.80
2022-11-23T07:16:48.659Z,543.33
2022-11-23T07:19:15.569Z,548.50
2022-11-23T07:21:42.602Z,546.90
2022-11-23T07:24:09.355Z,549.35
2022-11-23T07:26:35.959Z,541.50
2022-11-23T07:29:04.284Z,544.97
2022-11-23T07:31:31.107Z,542.63
2022-11-23T07:33:57.707Z,552.08
2022-11-23T07:36:24.742Z,536.95
2022-11-23T07:38:51.313Z,529.53
2022-11-23T07:41:20.116Z,535.78
2022-11-23T07:44:03.287Z,542.15
2022-11-23T07:46:29.861Z,534.58
2022-11-23T07:49:01.291Z,524.60
2022-11-23T07:51:29.618Z,531.55
2022-11-23T07:53:56.397Z,531.33
2022-11-23T07:56:23.471Z,539.65
2022-11-23T07:58:50.488Z,538.80
2022-11-23T08:01:18.838Z,515.80
2022-11-23T08:03:46.491Z,514.03
2022-11-23T08:06:14.586Z,515.40
2022-11-23T08:08:42.357Z,521.40
2022-11-23T08:11:09.647Z,525.77
2022-11-23T08:13:37.321Z,516.38
2022-11-23T08:16:04.051Z,507.45
2022-11-23T08:18:30.692Z,512.85
2022-11-23T08:21:02.844Z,517.20
2022-11-23T08:23:29.931Z,510.50
2022-11-23T08:25:56.556Z,515.33
2022-11-23T08:28:23.191Z,512.67
2022-11-23T08:30:50.150Z,502.90
2022-11-23T08:33:17.330Z,503.67
2022-11-23T08:35:43.950Z,504.60
2022-11-23T08:38:11.463Z,508.80
2022-11-23T08:40:38.809Z,518.13
2022-11-23T08:43:06.304Z,513.42
2022-11-23T08:45:32.930Z,513.33
2022-11-23T08:48:01.116Z,512.57
2022-11-23T08:50:29.309Z,503.85
2022-11-23T08:52:57.233Z,513.13
2022-11-23T08:55:25.620Z,514.13
2022-11-23T08:57:56.030Z,500.73
2022-11-23T09:00:22.878Z,512.65
2022-11-23T09:02:49.607Z,514.72
2022-11-23T09:05:16.351Z,522.97
2022-11-23T09:07:43.072Z,522.38
2022-11-23T09:10:13.617Z,517.58
2022-11-23T09:12:43.653Z,519.67
2022-11-23T09:15:10.357Z,517.00
2022-11-23T09:17:37.058Z,517.28
2022-11-23T09:20:03.996Z,519.72
2022-11-23T09:22:31.791Z,509.90
2022-11-23T09:24:58.557Z,528.17
2022-11-23T09:27:25.582Z,521.35
2022-11-23T09:29:52.224Z,519.33
2022-11-23T09:32:18.846Z,522.40
2022-11-23T09:34:45.500Z,512.55
2022-11-23T09:37:13.102Z,510.20
2022-11-23T09:39:39.745Z,503.03
2022-11-23T09:42:24.712Z,512.92
2022-11-23T09:44:54.208Z,515.85
2022-11-23T09:47:51.593Z,519.15
2022-11-23T09:50:27.553Z,522.13
2022-11-23T09:52:54.413Z,516.38
2022-11-23T09:55:36.814Z,512.83
2022-11-23T09:58:05.943Z,511.23
2022-11-23T10:00:46.025Z,517.00
2022-11-23T10:03:16.109Z,507.52
2022-11-23T10:05:50.346Z,514.30
2022-11-23T10:08:52.082Z,519.10
2022-11-23T10:11:42.903Z,513.33
2022-11-23T10:14:39.462Z,513.90
2022-11-23T10:17:28.388Z,510.65
2022-11-23T10:20:19.310Z,519.73
2022-11-23T10:23:00.668Z,509.63
2022-11-23T10:25:46.398Z,501.70
2022-11-23T10:28:15.898Z,506.90
2022-11-23T10:30:43.265Z,506.85
2022-11-23T10:33:31.621Z,511.98
2022-11-23T10:35:58.436Z,513.60
2022-11-23T10:38:27.896Z,502.92
2022-11-23T10:41:08.547Z,519.85
2022-11-23T10:43:54.004Z,512.60
2022-11-23T10:46:31.726Z,517.07
2022-11-23T10:49:20.236Z,519.23
2022-11-23T10:52:27.874Z,515.05
2022-11-23T10:54:57.200Z,527.13
2022-11-23T10:57:44.649Z,524.75
2022-11-23T11:00:13.007Z,530.00
2022-11-23T11:02:42.407Z,522.85
2022-11-23T11:06:08.579Z,521.90
2022-11-23T11:08:31.858Z,537.83
2022-11-23T11:11:21.295Z,541.60
2022-11-23T11:13:49.120Z,535.70
2022-11-23T11:16:27.622Z,523.45
2022-11-23T11:18:54.348Z,523.22
2022-11-23T11:21:24.050Z,527.90
2022-11-23T11:24:03.155Z,521.05
2022-11-23T11:26:33.212Z,528.00
2022-11-23T11:29:05.517Z,526.78
2022-11-23T11:31:38.125Z,527.90
2022-11-23T11:34:16.250Z,525.50
2022-11-23T11:37:01.756Z,529.87
2022-11-23T11:39:35.508Z,525.67
2022-11-23T11:42:07.215Z,530.35
2022-11-23T11:44:38.697Z,531.90
2022-11-23T11:47:18.831Z,524.67
2022-11-23T11:49:49.170Z,536.47
2022-11-23T11:52:22.226Z,531.88
2022-11-23T11:55:15.253Z,526.50
2022-11-23T11:57:48.786Z,526.05
2022-11-23T12:00:20.365Z,536.00
2022-11-23T12:03:10.706Z,541.92
2022-11-23T12:05:49.030Z,533.87
2022-11-23T12:08:22.533Z,535.20
2022-11-23T12:10:55.004Z,517.20
2022-11-23T12:13:29.739Z,519.47
2022-11-23T12:16:16.329Z,517.15
2022-11-23T12:18:56.719Z,515.90
2022-11-23T12:21:56.492Z,517.80
2022-11-23T12:24:47.413Z,523.45
2022-11-23T12:27:59.200Z,528.00
2022-11-23T12:30:31.848Z,527.53
2022-11-23T12:33:01.365Z,522.90
2022-11-23T12:35:40.223Z,515.83
2022-11-23T12:38:38.090Z,523.30
2022-11-23T12:41:16.860Z,520.47
2022-11-23T12:44:04.323Z,522.85
2022-11-23T12:47:05.777Z,537.25
2022-11-23T12:49:39.312Z,523.20
2022-11-23T12:52:47.517Z,520.85
2022-11-23T12:55:19.905Z,514.28
2022-11-23T12:58:14.254Z,513.45
2022-11-23T13:00:49.878Z,517.50
2022-11-23T13:03:37.662Z,514.20
2022-11-23T13:06:19.754Z,512.13
2022-11-23T13:09:22.847Z,513.20
2022-11-23T13:12:23.453Z,508.80
2022-11-23T13:15:27.872Z,487.20
2022-11-23T13:18:37.348Z,482.95
2022-11-23T13:21:22.067Z,488.45
2022-11-23T13:23:48.943Z,482.55
2022-11-23T13:26:18.882Z,497.38
2022-11-23T13:28:47.603Z,483.98
2022-11-23T13:31:17.247Z,491.73
2022-11-23T13:33:46.265Z,499.48
2022-11-23T13:37:11.045Z,502.33
2022-11-23T13:39:45.244Z,516.20
2022-11-23T13:42:13.527Z,519.60
2022-11-23T13:44:40.143Z,510.90
2022-11-23T13:47:19.265Z,525.05
2022-11-23T13:50:07.129Z,516.30
2022-11-23T13:52:36.286Z,516.47
2022-11-23T13:55:27.727Z,516.33
2022-11-23T13:58:25.388Z,511.03
2022-11-23T14:00:57.345Z,509.37
2022-11-23T14:03:42.380Z,505.20
2022-11-23T14:06:27.847Z,494.88
2022-11-23T14:09:12.780Z,499.92
2022-11-23T14:12:08.626Z,490.02
2022-11-23T14:14:49.341Z,485.67
2022-11-23T14:17:34.262Z,482.00
2022-11-23T14:20:19.193Z,480.83
2022-11-23T14:23:13.478Z,491.42
2022-11-23T14:26:26.972Z,485.30
2022-11-23T14:29:12.276Z,488.83
2022-11-23T14:31:51.897Z,491.77
2022-11-23T14:34:41.310Z,480.15
2022-11-23T14:37:10.818Z,494.52
2022-11-23T14:40:14.835Z,512.30
2022-11-23T14:42:52.465Z,520.63
2022-11-23T14:45:21.740Z,537.70
2022-11-23T14:47:48.693Z,544.67
2022-11-23T14:50:21.391Z,541.60
2022-11-23T14:52:48.769Z,527.22
2022-11-23T14:55:21.548Z,538.08
2022-11-23T14:57:51.494Z,535.85
2022-11-23T15:00:29.149Z,526.35
2022-11-23T15:03:00.094Z,527.53
2022-11-23T15:05:33.270Z,531.60
2022-11-23T15:08:11.979Z,529.17
2022-11-23T15:10:38.605Z,531.75
2022-11-23T15:13:23.859Z,522.30
2022-11-23T15:15:55.856Z,516.92
2022-11-23T15:18:34.648Z,521.22
2022-11-23T15:21:27.318Z,517.25
2022-11-23T15:23:57.368Z,513.20
2022-11-23T15:26:48.619Z,516.38
2022-11-23T15:29:34.902Z,514.47
2022-11-23T15:32:30.667Z,513.67
2022-11-23T15:35:06.559Z,525.28
2022-11-23T15:37:41.175Z,526.67
2022-11-23T15:40:13.624Z,523.60
2022-11-23T15:42:40.878Z,519.72
2022-11-23T15:45:45.705Z,518.60
2022-11-23T15:48:17.671Z,516.05
2022-11-23T15:50:58.954Z,523.58
2022-11-23T15:53:31.839Z,514.27
2022-11-23T15:56:05.811Z,521.80
2022-11-23T15:58:35.142Z,525.00
2022-11-23T16:01:13.551Z,526.63
2022-11-23T16:03:47.479Z,517.78
2022-11-23T16:06:14.142Z,512.92
2022-11-23T16:08:41.258Z,515.53
2022-11-23T16:11:36.714Z,510.90
2022-11-23T16:14:20.889Z,517.28
2022-11-23T16:16:58.547Z,519.75
2022-11-23T16:19:29.502Z,520.58
2022-11-23T16:22:03.176Z,515.78
2022-11-23T16:24:32.135Z,517.17
2022-11-23T16:26:59.465Z,512.85
2022-11-23T16:29:30.543Z,513.08
2022-11-23T16:32:02.746Z,517.97
2022-11-23T16:34:29.491Z,520.35
2022-11-23T16:36:56.436Z,519.25
2022-11-23T16:39:24.125Z,517.40
2022-11-23T16:41:52.059Z,519.75
2022-11-23T16:44:19.505Z,512.08
2022-11-23T16:46:47.689Z,513.75
2022-11-23T16:49:20.457Z,509.27
2022-11-23T16:51:56.160Z,515.05
2022-11-23T16:54:25.057Z,525.78
2022-11-23T16:56:52.684Z,532.13
2022-11-23T16:59:20.015Z,525.88
2022-11-23T17:01:53.860Z,528.00
2022-11-23T17:04:24.148Z,527.47
2022-11-23T17:06:50.946Z,514.03
2022-11-23T17:09:17.577Z,516.25
2022-11-23T17:11:47.390Z,526.78
2022-11-23T17:14:18.961Z,538.20
2022-11-23T17:16:46.605Z,540.78
2022-11-23T17:19:18.066Z,538.40
2022-11-23T17:21:45.090Z,521.58
2022-11-23T17:24:12.866Z,525.47
2022-11-23T17:26:45.371Z,515.63
2022-11-23T17:29:19.467Z,519.55
2022-11-23T17:31:47.607Z,513.33
2022-11-23T17:34:15.296Z,504.83
2022-11-23T17:36:44.341Z,512.78
2022-11-23T17:39:24.573Z,517.78
2022-11-23T17:41:51.308Z,520.40
2022-11-23T17:44:20.510Z,525.83
2022-11-23T17:46:47.653Z,530.45
2022-11-23T17:49:17.982Z,522.47
2022-11-23T17:51:44.746Z,523.80
2022-11-23T17:54:11.518Z,530.92
2022-11-23T17:56:38.790Z,532.92
2022-11-23T17:59:06.693Z,529.92
2022-11-23T18:01:35.815Z,519.90
2022-11-23T18:06:51.136Z,528.35
2022-11-23T18:09:18.180Z,527.72
2022-11-23T18:11:44.790Z,530.05
2022-11-23T18:14:11.486Z,521.65
2022-11-23T18:16:38.060Z,526.75
2022-11-23T18:19:05.429Z,528.42
2022-11-23T18:21:32.040Z,526.92
2022-11-23T18:24:04.098Z,526.08
2022-11-23T18:26:31.737Z,526.45
2022-11-23T18:28:58.367Z,525.55
2022-11-23T18:31:24.997Z,537.53
2022-11-23T18:33:51.670Z,536.88
2022-11-23T18:36:18.368Z,531.45
2022-11-23T18:38:45.279Z,525.22
2022-11-23T18:41:16.677Z,517.67
2022-11-23T18:43:44.684Z,514.58
2022-11-23T18:46:12.868Z,532.13
2022-11-23T18:48:39.506Z,529.95
2022-11-23T18:51:11.677Z,527.03
2022-11-23T18:53:38.352Z,524.10
2022-11-23T18:56:06.017Z,523.30
2022-11-23T18:58:38.084Z,524.85
2022-11-23T19:01:13.299Z,517.23
2022-11-23T19:03:44.143Z,522.65
2022-11-23T19:06:13.643Z,520.35
2022-11-23T19:08:42.338Z,523.65
2022-11-23T19:11:17.556Z,532.42
2022-11-23T19:13:46.138Z,524.65
2022-11-23T19:16:16.587Z,519.08
2022-11-23T19:18:43.824Z,514.92
2022-11-23T19:21:19.125Z,514.10
2022-11-23T19:23:50.700Z,519.47
2022-11-23T19:26:18.406Z,518.47
2022-11-23T19:28:45.561Z,518.50
2022-11-23T19:31:29.338Z,506.23
2022-11-23T19:34:01.752Z,511.98
2022-11-23T19:36:30.847Z,510.45
2022-11-23T19:38:58.200Z,500.83
2022-11-23T19:41:29.777Z,514.05
2022-11-23T19:43:58.354Z,514.30
2022-11-23T19:46:25.371Z,514.15
2022-11-23T19:48:52.018Z,511.58
2022-11-23T19:51:19.997Z,507.08
2022-11-23T19:53:49.137Z,522.28
2022-11-23T19:56:22.032Z,506.55
2022-11-23T19:58:54.311Z,496.52
2022-11-23T20:01:22.593Z,504.52
2022-11-23T20:03:51.245Z,501.05
2022-11-23T20:06:21.625Z,498.40
2022-11-23T20:08:57.066Z,502.60
2022-11-23T20:11:24.573Z,492.03
2022-11-23T20:13:51.502Z,501.88
2022-11-23T20:16:20.042Z,489.25
2022-11-23T20:18:49.090Z,483.98
2022-11-23T20:21:19.655Z,495.15
2022-11-23T20:23:47.497Z,486.00
2022-11-23T20:26:18.613Z,488.38
2022-11-23T20:28:46.380Z,488.70
2022-11-23T20:31:20.344Z,487.42
2022-11-23T20:33:47.994Z,485.60
2022-11-23T20:36:25.820Z,482.80
2022-11-23T20:38:53.637Z,478.17
2022-11-23T20:41:26.711Z,485.65
2022-11-23T20:43:58.981Z,490.27
2022-11-23T20:46:46.034Z,485.15
2022-11-23T20:49:14.054Z,486.52
2022-11-23T20:51:40.614Z,487.02
2022-11-23T20:54:08.749Z,500.73
2022-11-23T20:56:38.752Z,506.45
2022-11-23T20:59:05.439Z,507.58
2022-11-23T21:01:32.529Z,511.08
2022-11-23T21:03:59.948Z,506.05
2022-11-23T21:06:27.759Z,504.42
2022-11-23T21:08:55.118Z,513.42
2022-11-23T21:11:45.922Z,503.20
2022-11-23T21:14:18.860Z,508.88
2022-11-23T21:16:55.002Z,504.70
2022-11-23T21:19:23.874Z,509.48
2022-11-23T21:21:50.450Z,496.47
2022-11-23T21:24:17.076Z,505.55
2022-11-23T21:26:43.785Z,504.77
2022-11-23T21:29:11.382Z,514.08
2022-11-23T21:31:39.497Z,518.63
2022-11-23T21:34:06.274Z,516.70
2022-11-23T21:36:39.086Z,509.33
2022-11-23T21:39:09.014Z,508.20
2022-11-23T21:41:36.371Z,497.80
2022-11-23T21:44:04.446Z,497.42
2022-11-23T21:46:31.478Z,507.55
2022-11-23T21:48:59.592Z,503.33
2022-11-23T21:51:29.749Z,512.08
2022-11-23T21:53:58.216Z,509.88
2022-11-23T21:56:25.039Z,501.15
2022-11-23T21:58:52.305Z,510.40
2022-11-23T22:01:21.621Z,516.53
2022-11-23T22:03:54.482Z,518.38
2022-11-23T22:06:22.356Z,521.60
2022-11-23T22:08:54.566Z,522.65
2022-11-23T22:11:29.546Z,523.17
2022-11-23T22:13:58.223Z,531.95
2022-11-23T22:16:30.108Z,528.47
2022-11-23T22:18:58.031Z,523.28
2022-11-23T22:21:29.190Z,517.50
2022-11-23T22:23:55.873Z,516.33
2022-11-23T22:26:22.642Z,514.92
2022-11-23T22:28:50.863Z,523.05
2022-11-23T22:31:23.208Z,523.60
2022-11-23T22:33:50.366Z,519.53
2022-11-23T22:36:22.202Z,524.10
2022-11-23T22:38:56.600Z,527.73
2022-11-23T22:41:28.034Z,523.63
2022-11-23T22:43:54.946Z,526.20
2022-11-23T22:46:23.588Z,519.42
2022-11-23T22:48:51.747Z,529.13
2022-11-23T22:51:23.298Z,535.25
2022-11-23T22:53:55.104Z,533.83
2022-11-23T22:56:22.303Z,530.55
2022-11-23T22:58:49.823Z,530.05
2022-11-23T23:01:19.059Z,525.45
2022-11-23T23:03:46.612Z,532.20
2022-11-23T23:06:18.918Z,537.97
2022-11-23T23:08:46.790Z,541.95
2022-11-23T23:11:14.691Z,544.78
2022-11-23T23:13:41.877Z,539.30
2022-11-23T23:16:11.824Z,542.03
2022-11-23T23:18:39.247Z,541.85
2022-11-23T23:21:10.919Z,545.03
2022-11-23T23:23:38.745Z,549.13
2022-11-23T23:26:06.416Z,553.13
2022-11-23T23:28:33.686Z,551.97
2022-11-23T23:31:02.600Z,554.57
2022-11-23T23:33:29.759Z,557.53
2022-11-23T23:35:56.739Z,553.38
2022-11-23T23:38:30.037Z,548.05
2022-11-23T23:40:56.760Z,551.20
2022-11-23T23:43:23.445Z,544.38
2022-11-23T23:45:51.617Z,548.75
2022-11-23T23:48:18.360Z,553.17
2022-11-23T23:50:44.964Z,549.80
2022-11-23T23:53:11.599Z,547.65
2022-11-23T23:55:38.443Z,557.92
2022-11-23T23:58:05.116Z,548.58
